sensor_id;sensor_type;location;lat;lon;timestamp;P1;durP1;ratioP1;P2;durP2;ratioP2
30472;SDS011;17263;48.160;11.452;2023-07-09T00:02:04;11.23;;;6.73;;
30472;SDS011;17263;48.160;11.452;2023-07-09T00:04:30;8.27;;;6.87;;
30472;SDS011;17263;48.160;11.452;2023-07-09T00:07:00;8.33;;;6.67;;
30472;SDS011;17263;48.160;11.452;2023-07-09T00:09:29;8.13;;;6.27;;
30472;SDS011;17263;48.160;11.452;2023-07-09T00:11:56;9.83;;;6.33;;
30472;SDS011;17263;48.160;11.452;2023-07-09T00:14:23;10.13;;;7.40;;
30472;SDS011;17263;48.160;11.452;2023-07-09T00:16:49;9.83;;;7.10;;
30472;SDS011;17263;48.160;11.452;2023-07-09T00:19:17;6.93;;;5.97;;
30472;SDS011;17263;48.160;11.452;2023-07-09T00:21:45;7.73;;;6.63;;
30472;SDS011;17263;48.160;11.452;2023-07-09T00:24:13;10.83;;;6.30;;
30472;SDS011;17263;48.160;11.452;2023-07-09T00:26:40;8.03;;;6.23;;
30472;SDS011;17263;48.160;11.452;2023-07-09T00:29:08;7.40;;;6.70;;
30472;SDS011;17263;48.160;11.452;2023-07-09T00:31:35;8.40;;;6.70;;
30472;SDS011;17263;48.160;11.452;2023-07-09T00:34:09;7.77;;;6.93;;
30472;SDS011;17263;48.160;11.452;2023-07-09T00:36:39;6.97;;;6.07;;
30472;SDS011;17263;48.160;11.452;2023-07-09T00:39:22;7.83;;;6.10;;
30472;SDS011;17263;48.160;11.452;2023-07-09T00:41:49;9.60;;;6.47;;
30472;SDS011;17263;48.160;11.452;2023-07-09T00:49:15;9.90;;;6.63;;
30472;SDS011;17263;48.160;11.452;2023-07-09T00:51:51;9.07;;;6.27;;
30472;SDS011;17263;48.160;11.452;2023-07-09T00:54:22;8.50;;;6.50;;
30472;SDS011;17263;48.160;11.452;2023-07-09T00:56:57;8.60;;;6.50;;
30472;SDS011;17263;48.160;11.452;2023-07-09T00:59:26;9.30;;;6.30;;
30472;SDS011;17263;48.160;11.452;2023-07-09T01:01:54;9.60;;;6.70;;
30472;SDS011;17263;48.160;11.452;2023-07-09T01:04:21;7.50;;;6.33;;
30472;SDS011;17263;48.160;11.452;2023-07-09T01:06:50;8.83;;;6.07;;
30472;SDS011;17263;48.160;11.452;2023-07-09T01:09:18;8.57;;;6.70;;
30472;SDS011;17263;48.160;11.452;2023-07-09T01:11:44;7.13;;;5.97;;
30472;SDS011;17263;48.160;11.452;2023-07-09T01:14:11;10.30;;;6.37;;
30472;SDS011;17263;48.160;11.452;2023-07-09T01:16:46;6.80;;;5.30;;
30472;SDS011;17263;48.160;11.452;2023-07-09T01:19:26;7.30;;;6.20;;
30472;SDS011;17263;48.160;11.452;2023-07-09T01:21:57;8.13;;;6.33;;
30472;SDS011;17263;48.160;11.452;2023-07-09T01:27:32;9.27;;;6.23;;
30472;SDS011;17263;48.160;11.452;2023-07-09T01:30:04;7.57;;;6.10;;
30472;SDS011;17263;48.160;11.452;2023-07-09T01:32:51;6.67;;;5.93;;
30472;SDS011;17263;48.160;11.452;2023-07-09T01:35:22;9.63;;;6.83;;
30472;SDS011;17263;48.160;11.452;2023-07-09T01:37:49;6.13;;;5.10;;
30472;SDS011;17263;48.160;11.452;2023-07-09T01:40:16;6.40;;;5.60;;
30472;SDS011;17263;48.160;11.452;2023-07-09T01:42:46;10.63;;;6.10;;
30472;SDS011;17263;48.160;11.452;2023-07-09T01:45:12;6.53;;;5.83;;
30472;SDS011;17263;48.160;11.452;2023-07-09T01:47:39;7.47;;;6.17;;
30472;SDS011;17263;48.160;11.452;2023-07-09T01:50:05;7.20;;;5.93;;
30472;SDS011;17263;48.160;11.452;2023-07-09T01:52:32;7.07;;;5.83;;
30472;SDS011;17263;48.160;11.452;2023-07-09T01:54:59;8.47;;;6.30;;
30472;SDS011;17263;48.160;11.452;2023-07-09T01:57:26;7.87;;;6.33;;
30472;SDS011;17263;48.160;11.452;2023-07-09T02:00:03;9.30;;;6.50;;
30472;SDS011;17263;48.160;11.452;2023-07-09T02:02:34;9.43;;;6.53;;
30472;SDS011;17263;48.160;11.452;2023-07-09T02:05:01;7.87;;;6.30;;
30472;SDS011;17263;48.160;11.452;2023-07-09T02:07:27;7.87;;;6.50;;
30472;SDS011;17263;48.160;11.452;2023-07-09T02:09:53;9.13;;;6.23;;
30472;SDS011;17263;48.160;11.452;2023-07-09T02:12:19;9.40;;;6.63;;
30472;SDS011;17263;48.160;11.452;2023-07-09T02:14:46;8.30;;;5.70;;
30472;SDS011;17263;48.160;11.452;2023-07-09T02:17:13;9.40;;;6.17;;
30472;SDS011;17263;48.160;11.452;2023-07-09T02:19:40;7.93;;;5.87;;
30472;SDS011;17263;48.160;11.452;2023-07-09T02:22:06;9.30;;;5.83;;
30472;SDS011;17263;48.160;11.452;2023-07-09T02:24:33;7.20;;;6.20;;
30472;SDS011;17263;48.160;11.452;2023-07-09T02:27:00;8.70;;;6.17;;
30472;SDS011;17263;48.160;11.452;2023-07-09T02:29:27;9.47;;;6.37;;
30472;SDS011;17263;48.160;11.452;2023-07-09T02:31:56;7.27;;;5.93;;
30472;SDS011;17263;48.160;11.452;2023-07-09T02:34:24;8.13;;;6.37;;
30472;SDS011;17263;48.160;11.452;2023-07-09T02:36:54;7.97;;;6.27;;
30472;SDS011;17263;48.160;11.452;2023-07-09T02:39:22;9.63;;;6.37;;
30472;SDS011;17263;48.160;11.452;2023-07-09T02:41:49;7.27;;;6.27;;
30472;SDS011;17263;48.160;11.452;2023-07-09T02:44:16;9.73;;;6.30;;
30472;SDS011;17263;48.160;11.452;2023-07-09T02:46:43;9.40;;;6.33;;
30472;SDS011;17263;48.160;11.452;2023-07-09T02:49:10;8.50;;;5.47;;
30472;SDS011;17263;48.160;11.452;2023-07-09T02:51:37;8.83;;;5.90;;
30472;SDS011;17263;48.160;11.452;2023-07-09T02:54:04;6.63;;;5.80;;
30472;SDS011;17263;48.160;11.452;2023-07-09T02:56:30;8.37;;;6.47;;
30472;SDS011;17263;48.160;11.452;2023-07-09T02:58:56;9.30;;;6.33;;
30472;SDS011;17263;48.160;11.452;2023-07-09T03:01:22;9.80;;;5.80;;
30472;SDS011;17263;48.160;11.452;2023-07-09T03:03:53;8.90;;;5.73;;
30472;SDS011;17263;48.160;11.452;2023-07-09T03:06:20;6.60;;;5.80;;
30472;SDS011;17263;48.160;11.452;2023-07-09T03:08:47;6.97;;;5.53;;
30472;SDS011;17263;48.160;11.452;2023-07-09T03:11:14;7.83;;;6.07;;
30472;SDS011;17263;48.160;11.452;2023-07-09T03:13:41;7.70;;;5.93;;
30472;SDS011;17263;48.160;11.452;2023-07-09T03:16:07;7.70;;;6.20;;
30472;SDS011;17263;48.160;11.452;2023-07-09T03:18:33;9.60;;;6.30;;
30472;SDS011;17263;48.160;11.452;2023-07-09T03:20:59;9.30;;;6.03;;
30472;SDS011;17263;48.160;11.452;2023-07-09T03:23:26;6.93;;;5.90;;
30472;SDS011;17263;48.160;11.452;2023-07-09T03:25:52;6.40;;;5.70;;
30472;SDS011;17263;48.160;11.452;2023-07-09T03:28:20;7.03;;;6.07;;
30472;SDS011;17263;48.160;11.452;2023-07-09T03:30:47;7.27;;;6.10;;
30472;SDS011;17263;48.160;11.452;2023-07-09T03:33:15;6.60;;;5.90;;
30472;SDS011;17263;48.160;11.452;2023-07-09T03:35:42;6.43;;;5.50;;
30472;SDS011;17263;48.160;11.452;2023-07-09T03:38:09;8.03;;;5.80;;
30472;SDS011;17263;48.160;11.452;2023-07-09T03:40:36;6.37;;;5.70;;
30472;SDS011;17263;48.160;11.452;2023-07-09T03:43:03;8.37;;;6.40;;
30472;SDS011;17263;48.160;11.452;2023-07-09T03:45:32;8.73;;;5.97;;
30472;SDS011;17263;48.160;11.452;2023-07-09T03:48:01;7.73;;;5.60;;
30472;SDS011;17263;48.160;11.452;2023-07-09T03:50:27;9.53;;;6.07;;
30472;SDS011;17263;48.160;11.452;2023-07-09T03:52:54;6.17;;;5.50;;
30472;SDS011;17263;48.160;11.452;2023-07-09T03:55:20;11.57;;;5.97;;
30472;SDS011;17263;48.160;11.452;2023-07-09T03:57:46;7.00;;;5.60;;
30472;SDS011;17263;48.160;11.452;2023-07-09T04:00:12;6.87;;;5.77;;
30472;SDS011;17263;48.160;11.452;2023-07-09T04:02:39;7.13;;;5.97;;
30472;SDS011;17263;48.160;11.452;2023-07-09T04:05:06;9.97;;;5.93;;
30472;SDS011;17263;48.160;11.452;2023-07-09T04:07:36;8.97;;;5.73;;
30472;SDS011;17263;48.160;11.452;2023-07-09T04:10:03;9.87;;;6.27;;
30472;SDS011;17263;48.160;11.452;2023-07-09T04:12:30;6.50;;;5.50;;
30472;SDS011;17263;48.160;11.452;2023-07-09T04:14:56;8.40;;;5.60;;
30472;SDS011;17263;48.160;11.452;2023-07-09T04:17:22;6.97;;;5.90;;
30472;SDS011;17263;48.160;11.452;2023-07-09T04:19:52;7.70;;;5.47;;
30472;SDS011;17263;48.160;11.452;2023-07-09T04:22:18;7.93;;;5.80;;
30472;SDS011;17263;48.160;11.452;2023-07-09T04:24:44;9.50;;;5.80;;
30472;SDS011;17263;48.160;11.452;2023-07-09T04:27:11;7.10;;;5.63;;
30472;SDS011;17263;48.160;11.452;2023-07-09T04:29:39;7.70;;;5.93;;
30472;SDS011;17263;48.160;11.452;2023-07-09T04:32:11;6.10;;;4.73;;
30472;SDS011;17263;48.160;11.452;2023-07-09T04:34:38;5.90;;;5.27;;
30472;SDS011;17263;48.160;11.452;2023-07-09T04:37:08;5.73;;;5.10;;
30472;SDS011;17263;48.160;11.452;2023-07-09T04:39:36;7.23;;;5.63;;
30472;SDS011;17263;48.160;11.452;2023-07-09T04:42:03;6.10;;;5.40;;
30472;SDS011;17263;48.160;11.452;2023-07-09T04:44:30;7.30;;;5.33;;
30472;SDS011;17263;48.160;11.452;2023-07-09T04:46:56;6.67;;;5.23;;
30472;SDS011;17263;48.160;11.452;2023-07-09T04:49:22;8.90;;;5.97;;
30472;SDS011;17263;48.160;11.452;2023-07-09T04:51:48;6.50;;;5.77;;
30472;SDS011;17263;48.160;11.452;2023-07-09T04:54:14;7.30;;;5.40;;
30472;SDS011;17263;48.160;11.452;2023-07-09T04:56:41;8.13;;;5.30;;
30472;SDS011;17263;48.160;11.452;2023-07-09T04:59:10;6.53;;;5.10;;
30472;SDS011;17263;48.160;11.452;2023-07-09T05:01:37;7.50;;;5.43;;
30472;SDS011;17263;48.160;11.452;2023-07-09T05:04:03;8.03;;;5.27;;
30472;SDS011;17263;48.160;11.452;2023-07-09T05:06:29;7.70;;;5.37;;
30472;SDS011;17263;48.160;11.452;2023-07-09T05:08:55;7.27;;;5.40;;
30472;SDS011;17263;48.160;11.452;2023-07-09T05:11:21;6.77;;;5.27;;
30472;SDS011;17263;48.160;11.452;2023-07-09T05:13:47;5.67;;;4.90;;
30472;SDS011;17263;48.160;11.452;2023-07-09T05:16:13;6.37;;;5.43;;
30472;SDS011;17263;48.160;11.452;2023-07-09T05:18:39;7.43;;;5.50;;
30472;SDS011;17263;48.160;11.452;2023-07-09T05:21:05;8.80;;;5.23;;
30472;SDS011;17263;48.160;11.452;2023-07-09T05:23:31;7.27;;;5.40;;
30472;SDS011;17263;48.160;11.452;2023-07-09T05:25:58;6.77;;;4.77;;
30472;SDS011;17263;48.160;11.452;2023-07-09T05:28:25;6.83;;;4.63;;
30472;SDS011;17263;48.160;11.452;2023-07-09T05:30:51;6.20;;;5.20;;
30472;SDS011;17263;48.160;11.452;2023-07-09T05:33:17;5.00;;;4.50;;
30472;SDS011;17263;48.160;11.452;2023-07-09T05:35:44;5.80;;;4.43;;
30472;SDS011;17263;48.160;11.452;2023-07-09T05:38:11;4.75;;;4.30;;
30472;SDS011;17263;48.160;11.452;2023-07-09T05:40:38;7.40;;;4.55;;
30472;SDS011;17263;48.160;11.452;2023-07-09T05:43:04;5.47;;;4.22;;
30472;SDS011;17263;48.160;11.452;2023-07-09T05:45:31;6.88;;;4.75;;
30472;SDS011;17263;48.160;11.452;2023-07-09T05:47:57;4.88;;;4.28;;
30472;SDS011;17263;48.160;11.452;2023-07-09T05:50:24;7.07;;;4.53;;
30472;SDS011;17263;48.160;11.452;2023-07-09T05:52:51;5.38;;;4.18;;
30472;SDS011;17263;48.160;11.452;2023-07-09T05:55:17;5.28;;;4.00;;
30472;SDS011;17263;48.160;11.452;2023-07-09T05:57:43;4.53;;;4.05;;
30472;SDS011;17263;48.160;11.452;2023-07-09T06:00:09;4.63;;;4.20;;
30472;SDS011;17263;48.160;11.452;2023-07-09T06:02:37;5.85;;;4.10;;
30472;SDS011;17263;48.160;11.452;2023-07-09T06:05:03;5.70;;;4.35;;
30472;SDS011;17263;48.160;11.452;2023-07-09T06:07:30;6.32;;;4.25;;
30472;SDS011;17263;48.160;11.452;2023-07-09T06:09:56;4.93;;;4.07;;
30472;SDS011;17263;48.160;11.452;2023-07-09T06:12:22;5.15;;;3.92;;
30472;SDS011;17263;48.160;11.452;2023-07-09T06:14:48;5.70;;;3.83;;
30472;SDS011;17263;48.160;11.452;2023-07-09T06:17:14;5.68;;;3.88;;
30472;SDS011;17263;48.160;11.452;2023-07-09T06:19:40;5.63;;;3.83;;
30472;SDS011;17263;48.160;11.452;2023-07-09T06:22:06;4.82;;;4.13;;
30472;SDS011;17263;48.160;11.452;2023-07-09T06:24:32;5.20;;;3.70;;
30472;SDS011;17263;48.160;11.452;2023-07-09T06:26:58;6.63;;;3.55;;
30472;SDS011;17263;48.160;11.452;2023-07-09T06:29:24;4.75;;;3.78;;
30472;SDS011;17263;48.160;11.452;2023-07-09T06:31:51;5.25;;;4.15;;
30472;SDS011;17263;48.160;11.452;2023-07-09T06:34:17;5.43;;;3.75;;
30472;SDS011;17263;48.160;11.452;2023-07-09T06:36:43;5.95;;;3.90;;
30472;SDS011;17263;48.160;11.452;2023-07-09T06:39:09;6.50;;;4.07;;
30472;SDS011;17263;48.160;11.452;2023-07-09T06:41:35;4.68;;;3.70;;
30472;SDS011;17263;48.160;11.452;2023-07-09T06:44:05;7.38;;;3.78;;
30472;SDS011;17263;48.160;11.452;2023-07-09T06:46:32;4.13;;;3.58;;
30472;SDS011;17263;48.160;11.452;2023-07-09T06:48:59;4.07;;;3.67;;
30472;SDS011;17263;48.160;11.452;2023-07-09T06:51:25;4.70;;;3.60;;
30472;SDS011;17263;48.160;11.452;2023-07-09T06:53:52;4.25;;;3.85;;
30472;SDS011;17263;48.160;11.452;2023-07-09T06:56:18;5.32;;;3.72;;
30472;SDS011;17263;48.160;11.452;2023-07-09T06:58:44;4.15;;;3.35;;
30472;SDS011;17263;48.160;11.452;2023-07-09T07:01:11;4.78;;;4.38;;
30472;SDS011;17263;48.160;11.452;2023-07-09T07:03:38;5.88;;;3.88;;
30472;SDS011;17263;48.160;11.452;2023-07-09T07:06:04;4.93;;;3.45;;
30472;SDS011;17263;48.160;11.452;2023-07-09T07:08:32;4.60;;;3.63;;
30472;SDS011;17263;48.160;11.452;2023-07-09T07:10:59;4.30;;;3.20;;
30472;SDS011;17263;48.160;11.452;2023-07-09T07:13:28;3.38;;;3.08;;
30472;SDS011;17263;48.160;11.452;2023-07-09T07:15:54;6.72;;;3.72;;
30472;SDS011;17263;48.160;11.452;2023-07-09T07:18:20;3.92;;;3.20;;
30472;SDS011;17263;48.160;11.452;2023-07-09T07:20:46;4.43;;;3.38;;
30472;SDS011;17263;48.160;11.452;2023-07-09T07:23:13;5.22;;;3.50;;
30472;SDS011;17263;48.160;11.452;2023-07-09T07:25:39;3.72;;;3.22;;
30472;SDS011;17263;48.160;11.452;2023-07-09T07:28:06;3.90;;;3.20;;
30472;SDS011;17263;48.160;11.452;2023-07-09T07:30:32;4.97;;;3.55;;
30472;SDS011;17263;48.160;11.452;2023-07-09T07:32:58;4.28;;;3.28;;
30472;SDS011;17263;48.160;11.452;2023-07-09T07:35:24;4.97;;;3.45;;
30472;SDS011;17263;48.160;11.452;2023-07-09T07:37:50;4.38;;;3.60;;
30472;SDS011;17263;48.160;11.452;2023-07-09T07:40:16;4.55;;;3.35;;
30472;SDS011;17263;48.160;11.452;2023-07-09T07:42:42;7.53;;;3.65;;
30472;SDS011;17263;48.160;11.452;2023-07-09T07:45:08;5.53;;;3.80;;
30472;SDS011;17263;48.160;11.452;2023-07-09T07:47:35;3.80;;;3.40;;
30472;SDS011;17263;48.160;11.452;2023-07-09T07:50:01;5.43;;;3.40;;
30472;SDS011;17263;48.160;11.452;2023-07-09T07:52:27;4.78;;;3.45;;
30472;SDS011;17263;48.160;11.452;2023-07-09T07:54:54;4.60;;;3.78;;
30472;SDS011;17263;48.160;11.452;2023-07-09T07:57:21;4.03;;;3.30;;
30472;SDS011;17263;48.160;11.452;2023-07-09T07:59:49;5.25;;;3.65;;
30472;SDS011;17263;48.160;11.452;2023-07-09T08:02:16;4.55;;;3.25;;
30472;SDS011;17263;48.160;11.452;2023-07-09T08:04:42;7.55;;;3.78;;
30472;SDS011;17263;48.160;11.452;2023-07-09T08:07:08;4.13;;;3.15;;
30472;SDS011;17263;48.160;11.452;2023-07-09T08:09:35;4.30;;;3.60;;
30472;SDS011;17263;48.160;11.452;2023-07-09T08:12:02;6.63;;;3.80;;
30472;SDS011;17263;48.160;11.452;2023-07-09T08:14:34;4.30;;;3.80;;
30472;SDS011;17263;48.160;11.452;2023-07-09T08:17:01;6.15;;;3.67;;
30472;SDS011;17263;48.160;11.452;2023-07-09T08:19:28;4.40;;;4.00;;
30472;SDS011;17263;48.160;11.452;2023-07-09T08:21:54;5.50;;;3.42;;
30472;SDS011;17263;48.160;11.452;2023-07-09T08:24:20;5.95;;;3.85;;
30472;SDS011;17263;48.160;11.452;2023-07-09T08:26:46;6.55;;;3.53;;
30472;SDS011;17263;48.160;11.452;2023-07-09T08:29:12;6.63;;;3.60;;
30472;SDS011;17263;48.160;11.452;2023-07-09T08:31:38;4.20;;;3.78;;
30472;SDS011;17263;48.160;11.452;2023-07-09T08:34:05;8.20;;;4.70;;
30472;SDS011;17263;48.160;11.452;2023-07-09T08:36:32;5.68;;;4.10;;
30472;SDS011;17263;48.160;11.452;2023-07-09T08:39:00;5.32;;;3.78;;
30472;SDS011;17263;48.160;11.452;2023-07-09T08:44:33;5.18;;;3.67;;
30472;SDS011;17263;48.160;11.452;2023-07-09T08:47:06;7.22;;;4.68;;
30472;SDS011;17263;48.160;11.452;2023-07-09T08:52:39;6.03;;;4.47;;
30472;SDS011;17263;48.160;11.452;2023-07-09T08:57:44;6.50;;;4.00;;
30472;SDS011;17263;48.160;11.452;2023-07-09T09:00:30;6.20;;;4.00;;
30472;SDS011;17263;48.160;11.452;2023-07-09T09:03:05;6.57;;;4.07;;
30472;SDS011;17263;48.160;11.452;2023-07-09T09:05:43;5.60;;;3.97;;
30472;SDS011;17263;48.160;11.452;2023-07-09T09:08:23;6.22;;;4.20;;
30472;SDS011;17263;48.160;11.452;2023-07-09T09:11:10;4.68;;;3.80;;
30472;SDS011;17263;48.160;11.452;2023-07-09T09:13:59;5.70;;;3.95;;
30472;SDS011;17263;48.160;11.452;2023-07-09T09:16:38;6.05;;;4.00;;
30472;SDS011;17263;48.160;11.452;2023-07-09T09:22:08;4.32;;;3.67;;
30472;SDS011;17263;48.160;11.452;2023-07-09T09:24:38;5.78;;;3.70;;
30472;SDS011;17263;48.160;11.452;2023-07-09T09:27:15;6.28;;;4.32;;
30472;SDS011;17263;48.160;11.452;2023-07-09T09:29:41;4.90;;;3.80;;
30472;SDS011;17263;48.160;11.452;2023-07-09T09:34:56;5.28;;;4.00;;
30472;SDS011;17263;48.160;11.452;2023-07-09T09:37:27;4.78;;;3.60;;
30472;SDS011;17263;48.160;11.452;2023-07-09T09:39:55;4.78;;;3.75;;
30472;SDS011;17263;48.160;11.452;2023-07-09T09:42:23;6.70;;;4.20;;
30472;SDS011;17263;48.160;11.452;2023-07-09T09:44:52;4.40;;;4.00;;
30472;SDS011;17263;48.160;11.452;2023-07-09T09:47:19;6.43;;;3.97;;
30472;SDS011;17263;48.160;11.452;2023-07-09T09:49:45;7.25;;;4.35;;
30472;SDS011;17263;48.160;11.452;2023-07-09T09:52:16;5.97;;;3.70;;
30472;SDS011;17263;48.160;11.452;2023-07-09T09:54:53;8.63;;;4.22;;
30472;SDS011;17263;48.160;11.452;2023-07-09T09:57:23;4.80;;;3.90;;
30472;SDS011;17263;48.160;11.452;2023-07-09T09:59:50;6.00;;;4.28;;
30472;SDS011;17263;48.160;11.452;2023-07-09T10:02:20;6.80;;;3.83;;
30472;SDS011;17263;48.160;11.452;2023-07-09T10:04:48;5.03;;;3.90;;
30472;SDS011;17263;48.160;11.452;2023-07-09T10:07:27;5.57;;;3.90;;
30472;SDS011;17263;48.160;11.452;2023-07-09T10:09:58;4.25;;;3.85;;
30472;SDS011;17263;48.160;11.452;2023-07-09T10:12:30;5.45;;;3.70;;
30472;SDS011;17263;48.160;11.452;2023-07-09T10:20:32;4.38;;;3.58;;
30472;SDS011;17263;48.160;11.452;2023-07-09T10:23:28;5.80;;;3.58;;
30472;SDS011;17263;48.160;11.452;2023-07-09T10:26:15;5.90;;;3.70;;
30472;SDS011;17263;48.160;11.452;2023-07-09T10:29:01;4.75;;;3.08;;
30472;SDS011;17263;48.160;11.452;2023-07-09T10:31:56;4.93;;;4.13;;
30472;SDS011;17263;48.160;11.452;2023-07-09T10:34:42;5.95;;;4.03;;
30472;SDS011;17263;48.160;11.452;2023-07-09T10:40:31;6.93;;;4.00;;
30472;SDS011;17263;48.160;11.452;2023-07-09T10:43:06;4.35;;;3.63;;
30472;SDS011;17263;48.160;11.452;2023-07-09T10:45:42;5.82;;;3.88;;
30472;SDS011;17263;48.160;11.452;2023-07-09T10:48:12;4.90;;;3.78;;
30472;SDS011;17263;48.160;11.452;2023-07-09T10:50:50;7.45;;;3.85;;
30472;SDS011;17263;48.160;11.452;2023-07-09T10:53:29;5.53;;;4.10;;
30472;SDS011;17263;48.160;11.452;2023-07-09T10:56:23;5.53;;;4.03;;
30472;SDS011;17263;48.160;11.452;2023-07-09T10:59:10;5.13;;;4.18;;
30472;SDS011;17263;48.160;11.452;2023-07-09T11:01:52;4.32;;;3.50;;
30472;SDS011;17263;48.160;11.452;2023-07-09T11:04:38;4.85;;;3.85;;
30472;SDS011;17263;48.160;11.452;2023-07-09T11:07:11;4.22;;;3.40;;
30472;SDS011;17263;48.160;11.452;2023-07-09T11:09:41;9.57;;;4.38;;
30472;SDS011;17263;48.160;11.452;2023-07-09T11:12:13;9.02;;;5.00;;
30472;SDS011;17263;48.160;11.452;2023-07-09T11:14:50;5.50;;;4.20;;
30472;SDS011;17263;48.160;11.452;2023-07-09T11:17:21;4.97;;;4.47;;
30472;SDS011;17263;48.160;11.452;2023-07-09T11:19:48;6.50;;;4.05;;
30472;SDS011;17263;48.160;11.452;2023-07-09T11:22:41;3.67;;;3.28;;
30472;SDS011;17263;48.160;11.452;2023-07-09T11:27:53;5.43;;;3.78;;
30472;SDS011;17263;48.160;11.452;2023-07-09T11:30:27;7.00;;;4.07;;
30472;SDS011;17263;48.160;11.452;2023-07-09T11:32:58;5.10;;;4.07;;
30472;SDS011;17263;48.160;11.452;2023-07-09T11:35:28;5.03;;;4.07;;
30472;SDS011;17263;48.160;11.452;2023-07-09T11:38:11;5.18;;;3.95;;
30472;SDS011;17263;48.160;11.452;2023-07-09T11:40:46;5.10;;;3.78;;
30472;SDS011;17263;48.160;11.452;2023-07-09T11:43:26;4.20;;;3.42;;
30472;SDS011;17263;48.160;11.452;2023-07-09T11:45:55;6.55;;;3.63;;
30472;SDS011;17263;48.160;11.452;2023-07-09T11:48:25;6.53;;;3.85;;
30472;SDS011;17263;48.160;11.452;2023-07-09T11:50:55;4.95;;;3.97;;
30472;SDS011;17263;48.160;11.452;2023-07-09T11:55:59;4.63;;;3.60;;
30472;SDS011;17263;48.160;11.452;2023-07-09T11:58:25;5.13;;;3.45;;
30472;SDS011;17263;48.160;11.452;2023-07-09T12:00:54;6.05;;;3.70;;
30472;SDS011;17263;48.160;11.452;2023-07-09T12:03:34;6.55;;;3.80;;
30472;SDS011;17263;48.160;11.452;2023-07-09T12:06:03;4.68;;;4.25;;
30472;SDS011;17263;48.160;11.452;2023-07-09T12:08:42;5.47;;;3.83;;
30472;SDS011;17263;48.160;11.452;2023-07-09T12:11:44;6.25;;;3.92;;
30472;SDS011;17263;48.160;11.452;2023-07-09T12:14:17;3.70;;;3.40;;
30472;SDS011;17263;48.160;11.452;2023-07-09T12:16:48;5.55;;;3.90;;
30472;SDS011;17263;48.160;11.452;2023-07-09T12:19:18;4.72;;;3.83;;
30472;SDS011;17263;48.160;11.452;2023-07-09T12:21:46;5.22;;;3.97;;
30472;SDS011;17263;48.160;11.452;2023-07-09T12:26:51;5.20;;;3.53;;
30472;SDS011;17263;48.160;11.452;2023-07-09T12:29:18;6.63;;;3.58;;
30472;SDS011;17263;48.160;11.452;2023-07-09T12:31:44;6.88;;;3.55;;
30472;SDS011;17263;48.160;11.452;2023-07-09T12:34:11;5.72;;;3.90;;
30472;SDS011;17263;48.160;11.452;2023-07-09T12:36:41;5.13;;;3.50;;
30472;SDS011;17263;48.160;11.452;2023-07-09T12:39:12;7.30;;;3.75;;
30472;SDS011;17263;48.160;11.452;2023-07-09T12:41:41;6.57;;;4.00;;
30472;SDS011;17263;48.160;11.452;2023-07-09T12:44:14;4.35;;;3.95;;
30472;SDS011;17263;48.160;11.452;2023-07-09T12:46:43;6.07;;;3.60;;
30472;SDS011;17263;48.160;11.452;2023-07-09T12:49:20;6.63;;;4.10;;
30472;SDS011;17263;48.160;11.452;2023-07-09T12:51:53;6.63;;;3.40;;
30472;SDS011;17263;48.160;11.452;2023-07-09T12:54:20;5.55;;;3.30;;
30472;SDS011;17263;48.160;11.452;2023-07-09T12:56:47;4.38;;;3.60;;
30472;SDS011;17263;48.160;11.452;2023-07-09T12:59:24;6.80;;;4.28;;
30472;SDS011;17263;48.160;11.452;2023-07-09T13:01:55;6.65;;;3.58;;
30472;SDS011;17263;48.160;11.452;2023-07-09T13:04:32;5.05;;;4.35;;
30472;SDS011;17263;48.160;11.452;2023-07-09T13:07:01;5.38;;;3.80;;
30472;SDS011;17263;48.160;11.452;2023-07-09T13:09:27;5.03;;;4.20;;
30472;SDS011;17263;48.160;11.452;2023-07-09T13:11:54;5.55;;;4.18;;
30472;SDS011;17263;48.160;11.452;2023-07-09T13:14:22;4.72;;;3.92;;
30472;SDS011;17263;48.160;11.452;2023-07-09T13:16:50;5.10;;;3.95;;
30472;SDS011;17263;48.160;11.452;2023-07-09T13:19:17;9.70;;;4.28;;
30472;SDS011;17263;48.160;11.452;2023-07-09T13:21:44;4.35;;;3.92;;
30472;SDS011;17263;48.160;11.452;2023-07-09T13:24:19;4.70;;;3.90;;
30472;SDS011;17263;48.160;11.452;2023-07-09T13:26:50;5.57;;;3.92;;
30472;SDS011;17263;48.160;11.452;2023-07-09T13:29:17;5.68;;;3.80;;
30472;SDS011;17263;48.160;11.452;2023-07-09T13:31:44;5.80;;;4.00;;
30472;SDS011;17263;48.160;11.452;2023-07-09T13:34:18;8.95;;;4.43;;
30472;SDS011;17263;48.160;11.452;2023-07-09T13:36:44;7.75;;;4.22;;
30472;SDS011;17263;48.160;11.452;2023-07-09T13:39:10;7.22;;;3.85;;
30472;SDS011;17263;48.160;11.452;2023-07-09T13:41:38;6.07;;;4.55;;
30472;SDS011;17263;48.160;11.452;2023-07-09T13:44:10;4.72;;;3.78;;
30472;SDS011;17263;48.160;11.452;2023-07-09T13:46:38;7.95;;;4.40;;
30472;SDS011;17263;48.160;11.452;2023-07-09T13:49:08;6.00;;;3.88;;
30472;SDS011;17263;48.160;11.452;2023-07-09T13:51:35;6.55;;;4.55;;
30472;SDS011;17263;48.160;11.452;2023-07-09T13:54:01;7.10;;;4.13;;
30472;SDS011;17263;48.160;11.452;2023-07-09T13:56:39;5.20;;;3.90;;
30472;SDS011;17263;48.160;11.452;2023-07-09T13:59:10;5.60;;;4.30;;
30472;SDS011;17263;48.160;11.452;2023-07-09T14:01:54;7.03;;;4.72;;
30472;SDS011;17263;48.160;11.452;2023-07-09T14:04:22;5.22;;;4.45;;
30472;SDS011;17263;48.160;11.452;2023-07-09T14:06:49;6.20;;;4.53;;
30472;SDS011;17263;48.160;11.452;2023-07-09T14:09:16;5.40;;;4.20;;
30472;SDS011;17263;48.160;11.452;2023-07-09T14:11:47;6.30;;;3.90;;
30472;SDS011;17263;48.160;11.452;2023-07-09T14:14:22;4.72;;;3.88;;
30472;SDS011;17263;48.160;11.452;2023-07-09T14:16:58;7.07;;;4.10;;
30472;SDS011;17263;48.160;11.452;2023-07-09T14:19:24;4.10;;;3.67;;
30472;SDS011;17263;48.160;11.452;2023-07-09T14:21:51;7.30;;;3.75;;
30472;SDS011;17263;48.160;11.452;2023-07-09T14:24:25;9.00;;;3.83;;
30472;SDS011;17263;48.160;11.452;2023-07-09T14:26:55;4.32;;;3.67;;
30472;SDS011;17263;48.160;11.452;2023-07-09T14:29:22;5.45;;;3.47;;
30472;SDS011;17263;48.160;11.452;2023-07-09T14:31:49;5.53;;;4.15;;
30472;SDS011;17263;48.160;11.452;2023-07-09T14:34:22;6.03;;;3.78;;
30472;SDS011;17263;48.160;11.452;2023-07-09T14:36:57;4.68;;;4.00;;
30472;SDS011;17263;48.160;11.452;2023-07-09T14:39:25;6.47;;;3.88;;
30472;SDS011;17263;48.160;11.452;2023-07-09T14:41:52;4.72;;;4.00;;
30472;SDS011;17263;48.160;11.452;2023-07-09T14:44:26;5.40;;;4.10;;
30472;SDS011;17263;48.160;11.452;2023-07-09T14:46:58;6.68;;;3.85;;
30472;SDS011;17263;48.160;11.452;2023-07-09T14:49:26;6.38;;;3.90;;
30472;SDS011;17263;48.160;11.452;2023-07-09T14:51:52;5.03;;;3.80;;
30472;SDS011;17263;48.160;11.452;2023-07-09T14:54:20;4.80;;;3.65;;
30472;SDS011;17263;48.160;11.452;2023-07-09T14:56:51;5.22;;;3.83;;
30472;SDS011;17263;48.160;11.452;2023-07-09T14:59:19;5.15;;;3.53;;
30472;SDS011;17263;48.160;11.452;2023-07-09T15:01:45;6.03;;;3.83;;
30472;SDS011;17263;48.160;11.452;2023-07-09T15:06:47;6.25;;;4.10;;
30472;SDS011;17263;48.160;11.452;2023-07-09T15:09:14;8.55;;;4.07;;
30472;SDS011;17263;48.160;11.452;2023-07-09T15:11:43;4.85;;;3.85;;
30472;SDS011;17263;48.160;11.452;2023-07-09T15:14:11;6.70;;;4.05;;
30472;SDS011;17263;48.160;11.452;2023-07-09T15:16:40;4.15;;;3.42;;
30472;SDS011;17263;48.160;11.452;2023-07-09T15:19:14;7.13;;;4.22;;
30472;SDS011;17263;48.160;11.452;2023-07-09T15:21:41;7.35;;;3.55;;
30472;SDS011;17263;48.160;11.452;2023-07-09T15:24:11;6.18;;;4.20;;
30472;SDS011;17263;48.160;11.452;2023-07-09T15:26:46;5.75;;;4.53;;
30472;SDS011;17263;48.160;11.452;2023-07-09T15:29:17;4.20;;;3.20;;